Time;durP1;ratioP1;P1;durP2;ratioP2;P2;SDS_P1;SDS_P2;PMS_P1;PMS_P2;Temp;Humidity;BMP_temperature;BMP_pressure;BME280_temperature;BME280_humidity;BME280_pressure;Samples;Min_cycle;Max_cycle;Signal;HPM_P1;HPM_P2
2023/09/15 00:01:29;;;;;;;86.27;51.57;;;14.40;99.90;;;;;;5159322;23;20490;-81
2023/09/15 00:03:54;;;;;;;84.47;49.10;;;14.40;99.90;;;;;;4986384;28;20449;-81
2023/09/15 00:06:20;;;;;;;84.40;49.33;;;14.30;99.90;;;;;;4984768;28;20222;-81
2023/09/15 00:08:47;;;;;;;84.47;47.87;;;14.30;99.90;;;;;;4985260;28;20167;-81
2023/09/15 00:11:16;;;;;;;90.40;45.90;;;14.20;99.90;;;;;;4984951;28;20243;-81
2023/09/15 00:13:45;;;;;;;83.50;44.97;;;14.10;99.90;;;;;;4985213;28;20900;-81
2023/09/15 00:16:11;;;;;;;81.40;43.53;;;14.10;99.90;;;;;;4984850;28;20391;-81
2023/09/15 00:18:37;;;;;;;84.87;48.80;;;14.10;99.90;;;;;;4985309;28;20459;-81
2023/09/15 00:21:05;;;;;;;87.43;56.47;;;14.10;99.90;;;;;;4984821;28;20505;-81
2023/09/15 00:23:31;;;;;;;86.07;53.67;;;14.10;99.90;;;;;;4968114;28;20191;-81
2023/09/15 00:25:59;;;;;;;86.37;52.67;;;14.10;99.90;;;;;;4987234;28;20399;-81
2023/09/15 00:28:25;;;;;;;85.20;50.20;;;14.00;99.90;;;;;;4987412;28;20409;-81
2023/09/15 00:30:51;;;;;;;87.43;57.07;;;14.10;99.90;;;;;;4987427;28;20502;-81
2023/09/15 00:33:17;;;;;;;86.63;48.37;;;14.00;99.90;;;;;;4987305;28;20176;-81
2023/09/15 00:35:43;;;;;;;85.73;43.77;;;14.00;99.90;;;;;;4987182;28;20423;-81
2023/09/15 00:38:09;;;;;;;84.43;49.47;;;13.90;99.90;;;;;;4987109;28;20183;-81
2023/09/15 00:40:35;;;;;;;87.20;51.33;;;13.90;99.90;;;;;;4973418;28;20267;-81
2023/09/15 00:43:00;;;;;;;85.13;52.40;;;13.90;99.90;;;;;;4991175;28;20454;-81
2023/09/15 00:45:26;;;;;;;87.93;54.67;;;13.90;99.90;;;;;;4991536;28;20176;-81
2023/09/15 00:47:57;;;;;;;84.60;49.07;;;13.90;99.90;;;;;;4991269;28;20160;-81
2023/09/15 00:50:29;;;;;;;83.40;47.07;;;13.90;99.90;;;;;;4973436;28;20422;-81
2023/09/15 00:53:04;;;;;;;82.10;44.23;;;13.80;99.90;;;;;;4990977;28;20426;-81
2023/09/15 00:55:32;;;;;;;83.30;46.70;;;13.70;99.90;;;;;;4973426;28;20414;-81
2023/09/15 00:58:02;;;;;;;82.30;43.93;;;13.70;99.90;;;;;;4973564;28;20936;-81
2023/09/15 01:00:29;;;;;;;84.23;44.37;;;13.70;99.90;;;;;;4991023;28;20415;-81
2023/09/15 01:02:55;;;;;;;85.70;45.40;;;13.70;99.90;;;;;;4990356;28;20521;-81
2023/09/15 01:05:23;;;;;;;86.20;46.00;;;13.70;99.90;;;;;;4973200;28;20773;-81
2023/09/15 01:07:53;;;;;;;80.90;40.73;;;13.60;99.90;;;;;;4990277;28;20396;-81
2023/09/15 01:10:20;;;;;;;81.83;42.20;;;13.60;99.90;;;;;;4989771;28;20400;-81
2023/09/15 01:12:48;;;;;;;79.57;37.60;;;13.50;99.90;;;;;;4989212;28;20434;-81
2023/09/15 01:15:16;;;;;;;82.33;44.20;;;13.50;99.90;;;;;;4989353;28;20407;-81
2023/09/15 01:17:48;;;;;;;82.07;42.93;;;13.50;99.90;;;;;;4989438;28;20532;-81
2023/09/15 01:20:25;;;;;;;83.30;44.63;;;13.50;99.90;;;;;;4971813;28;20491;-81
2023/09/15 01:23:09;;;;;;;83.80;46.30;;;13.40;99.90;;;;;;4989937;28;20446;-81
2023/09/15 01:25:53;;;;;;;81.90;40.43;;;13.40;99.90;;;;;;4972478;28;20407;-81
2023/09/15 01:29:01;;;;;;;85.70;49.20;;;13.30;99.90;;;;;;4989658;28;20400;-81
2023/09/15 01:31:27;;;;;;;80.17;39.33;;;13.50;99.90;;;;;;4989536;28;20434;-81
2023/09/15 01:33:54;;;;;;;82.13;43.27;;;13.40;99.90;;;;;;4972474;28;20419;-81
2023/09/15 01:36:20;;;;;;;86.63;48.33;;;13.40;99.90;;;;;;4990149;28;20494;-81
2023/09/15 01:38:45;;;;;;;83.07;46.70;;;13.30;99.90;;;;;;4971720;28;20482;-81
2023/09/15 01:41:11;;;;;;;83.10;44.33;;;13.30;99.90;;;;;;4989325;28;20223;-81
2023/09/15 01:43:36;;;;;;;82.47;44.70;;;13.30;99.90;;;;;;4989679;28;20178;-81
2023/09/15 01:46:02;;;;;;;81.47;42.60;;;13.30;99.90;;;;;;4989678;28;20197;-81
2023/09/15 01:48:29;;;;;;;83.20;46.10;;;13.20;99.90;;;;;;4989336;28;20168;-81
2023/09/15 01:50:56;;;;;;;84.13;49.97;;;13.20;99.90;;;;;;4987813;28;20626;-81
2023/09/15 01:53:23;;;;;;;88.40;52.20;;;13.20;99.90;;;;;;4990403;28;20411;-81
2023/09/15 01:55:50;;;;;;;83.60;49.33;;;13.30;99.90;;;;;;4991165;28;20412;-81
2023/09/15 01:58:18;;;;;;;86.30;49.63;;;13.30;99.90;;;;;;4989582;28;20407;-81
2023/09/15 02:00:43;;;;;;;83.80;48.57;;;13.20;99.90;;;;;;4989925;28;20431;-81
2023/09/15 02:03:09;;;;;;;86.50;48.23;;;13.20;99.90;;;;;;4989035;28;20549;-81
2023/09/15 02:05:35;;;;;;;83.50;45.97;;;13.20;99.90;;;;;;4989295;28;20199;-81
2023/09/15 02:08:00;;;;;;;88.63;51.70;;;13.20;99.90;;;;;;4989586;28;20406;-81
2023/09/15 02:10:26;;;;;;;86.23;48.73;;;13.10;99.90;;;;;;4989552;28;20168;-81
2023/09/15 02:12:52;;;;;;;87.77;48.47;;;13.10;99.90;;;;;;4989383;28;20542;-81
2023/09/15 02:15:17;;;;;;;86.67;51.97;;;13.10;99.90;;;;;;4989428;28;20239;-81
2023/09/15 02:17:43;;;;;;;88.37;51.80;;;13.10;99.90;;;;;;4989713;28;20187;-81
2023/09/15 02:20:12;;;;;;;84.73;50.07;;;13.10;99.90;;;;;;4991509;28;20203;-81
2023/09/15 02:22:41;;;;;;;88.10;54.93;;;13.20;99.90;;;;;;4989845;28;20207;-81
2023/09/15 02:25:09;;;;;;;85.90;51.50;;;13.20;99.90;;;;;;4989578;28;20431;-81
2023/09/15 02:27:36;;;;;;;96.10;57.77;;;13.20;99.90;;;;;;4989142;28;20411;-81
2023/09/15 02:30:03;;;;;;;91.67;56.70;;;13.30;99.90;;;;;;4990237;28;20414;-81
2023/09/15 02:32:29;;;;;;;86.07;57.03;;;13.30;99.90;;;;;;4988767;28;20486;-81
2023/09/15 02:34:54;;;;;;;89.70;54.30;;;13.20;99.90;;;;;;4989408;28;20419;-81
2023/09/15 02:37:20;;;;;;;87.10;54.80;;;13.20;99.90;;;;;;4989122;28;20176;-81
2023/09/15 02:39:46;;;;;;;85.47;50.70;;;13.20;99.90;;;;;;4989383;28;20180;-81
2023/09/15 02:42:12;;;;;;;87.30;55.03;;;13.20;99.90;;;;;;4988324;28;20199;-81
2023/09/15 02:44:38;;;;;;;88.17;57.13;;;13.30;99.90;;;;;;4970740;28;20202;-81
2023/09/15 02:47:03;;;;;;;89.03;57.60;;;13.40;99.90;;;;;;4971595;28;20416;-81
2023/09/15 02:49:29;;;;;;;84.20;49.53;;;13.40;99.90;;;;;;4989472;28;20640;-81
2023/09/15 02:51:57;;;;;;;85.97;51.93;;;13.30;99.90;;;;;;4989008;28;20673;-81
2023/09/15 02:54:23;;;;;;;87.27;59.00;;;13.20;99.90;;;;;;4988059;28;20415;-81
2023/09/15 02:56:48;;;;;;;85.63;53.77;;;13.20;99.90;;;;;;4988269;28;20411;-81
2023/09/15 02:59:15;;;;;;;85.10;52.00;;;13.30;99.90;;;;;;4988614;28;20421;-81
2023/09/15 03:01:43;;;;;;;91.97;50.57;;;13.30;99.90;;;;;;4988121;28;20260;-81
2023/09/15 03:04:09;;;;;;;89.67;51.10;;;13.30;99.90;;;;;;4988881;28;20407;-81
2023/09/15 03:06:34;;;;;;;84.80;49.00;;;13.20;99.90;;;;;;4988411;28;20438;-81
2023/09/15 03:09:00;;;;;;;86.83;53.83;;;13.20;99.90;;;;;;4988924;28;20172;-81
2023/09/15 03:11:25;;;;;;;86.20;49.90;;;13.20;99.90;;;;;;4988404;28;20670;-81
2023/09/15 03:13:52;;;;;;;88.83;48.30;;;13.10;99.90;;;;;;4987956;28;20200;-81
2023/09/15 03:16:18;;;;;;;90.60;50.37;;;13.10;99.90;;;;;;5052510;23;20226;-81
2023/09/15 03:18:46;;;;;;;85.20;53.87;;;13.10;99.90;;;;;;4978268;28;20403;-81
2023/09/15 03:21:12;;;;;;;85.10;50.63;;;13.20;99.90;;;;;;4991172;28;20211;-81
2023/09/15 03:23:38;;;;;;;86.13;52.77;;;13.00;99.90;;;;;;4978529;28;20422;-80
2023/09/15 03:26:05;;;;;;;86.50;55.50;;;13.00;99.90;;;;;;4976424;28;20656;-82
2023/09/15 03:28:36;;;;;;;88.33;55.87;;;12.90;99.90;;;;;;4976613;28;20438;-81
2023/09/15 03:31:06;;;;;;;91.30;52.70;;;12.90;99.90;;;;;;5147265;23;21015;-81
2023/09/15 03:33:32;;;;;;;94.27;66.60;;;12.90;99.90;;;;;;5167219;23;20871;-81
2023/09/15 03:35:58;;;;;;;87.27;55.67;;;12.90;99.90;;;;;;4995760;28;20465;-82
2023/09/15 03:38:24;;;;;;;91.33;58.73;;;13.00;99.90;;;;;;4995813;28;20430;-81
2023/09/15 03:40:50;;;;;;;89.73;59.80;;;13.00;99.90;;;;;;4993927;28;20455;-81
2023/09/15 03:43:15;;;;;;;88.03;57.10;;;13.00;99.90;;;;;;4958421;28;20457;-81
2023/09/15 03:45:47;;;;;;;92.87;58.77;;;13.00;99.90;;;;;;4976320;28;20688;-81
2023/09/15 03:48:14;;;;;;;91.07;65.83;;;12.90;99.90;;;;;;4958679;28;20159;-81
2023/09/15 03:50:39;;;;;;;88.67;56.50;;;12.90;99.90;;;;;;4975737;28;20462;-81
2023/09/15 03:53:09;;;;;;;85.77;56.03;;;12.80;99.90;;;;;;4975531;28;20407;-81
2023/09/15 03:55:35;;;;;;;87.17;56.77;;;12.80;99.90;;;;;;4975584;28;20168;-81
2023/09/15 03:58:03;;;;;;;91.13;61.10;;;12.80;99.90;;;;;;4976313;28;20482;-81
2023/09/15 04:00:29;;;;;;;92.37;60.33;;;12.90;99.90;;;;;;4958283;28;20411;-80
2023/09/15 04:02:54;;;;;;;87.20;54.63;;;13.00;99.90;;;;;;4975744;28;20844;-81
2023/09/15 04:05:20;;;;;;;86.80;52.17;;;13.00;99.90;;;;;;4958408;28;20192;-81
2023/09/15 04:07:46;;;;;;;87.07;55.20;;;12.90;99.90;;;;;;4975840;28;20172;-81
2023/09/15 04:10:13;;;;;;;89.57;58.77;;;12.80;99.90;;;;;;4976421;28;20168;-81
2023/09/15 04:12:42;;;;;;;86.07;55.37;;;12.80;99.90;;;;;;4975454;28;20973;-80
2023/09/15 04:15:09;;;;;;;92.57;52.27;;;12.80;99.90;;;;;;4978846;28;20407;-81
2023/09/15 04:17:34;;;;;;;87.77;54.63;;;12.80;99.90;;;;;;4979388;28;20410;-81
2023/09/15 04:20:00;;;;;;;86.90;57.43;;;12.80;99.90;;;;;;4979750;28;20407;-81
2023/09/15 04:22:29;;;;;;;91.83;51.57;;;12.90;99.90;;;;;;4962095;28;20204;-81
2023/09/15 04:24:54;;;;;;;88.00;51.43;;;12.90;99.90;;;;;;4979287;28;20174;-81
2023/09/15 04:27:20;;;;;;;84.90;46.93;;;12.90;99.90;;;;;;4979466;28;20483;-81
2023/09/15 04:29:56;;;;;;;83.87;49.77;;;12.80;99.90;;;;;;4979122;28;20259;-80
2023/09/15 04:32:22;;;;;;;93.93;65.37;;;12.60;99.90;;;;;;4979336;28;20191;-81
2023/09/15 04:34:49;;;;;;;89.47;59.27;;;12.50;99.90;;;;;;4979016;28;20423;-80
2023/09/15 04:37:15;;;;;;;88.93;60.13;;;12.50;99.90;;;;;;4962161;28;20896;-81
2023/09/15 04:39:41;;;;;;;90.77;63.53;;;12.50;99.90;;;;;;4980169;28;20414;-80
2023/09/15 04:42:07;;;;;;;87.20;58.03;;;12.50;99.90;;;;;;4978941;28;20196;-80
2023/09/15 04:44:32;;;;;;;89.00;60.47;;;12.40;99.90;;;;;;4979304;28;20446;-80
2023/09/15 04:47:00;;;;;;;85.93;55.70;;;12.40;99.90;;;;;;4979102;28;20175;-81
2023/09/15 04:49:25;;;;;;;86.43;55.00;;;12.40;99.90;;;;;;4962441;28;20195;-80
2023/09/15 04:51:51;;;;;;;88.07;56.43;;;12.40;99.90;;;;;;4979260;28;20515;-80
2023/09/15 04:54:17;;;;;;;89.03;55.80;;;12.40;99.90;;;;;;4961816;28;20168;-81
2023/09/15 04:56:42;;;;;;;92.90;68.53;;;12.40;99.90;;;;;;4979665;28;20692;-81
2023/09/15 04:59:15;;;;;;;88.47;57.50;;;12.40;99.90;;;;;;4980916;28;20175;-80
2023/09/15 05:01:42;;;;;;;93.17;50.50;;;12.40;99.90;;;;;;4979466;28;20195;-81
2023/09/15 05:04:08;;;;;;;87.43;54.50;;;12.40;99.90;;;;;;4979939;28;20431;-81
2023/09/15 05:06:34;;;;;;;88.27;53.40;;;12.40;99.90;;;;;;4979936;28;20399;-80
2023/09/15 05:08:59;;;;;;;87.90;55.60;;;12.40;99.90;;;;;;4979448;28;20242;-80
2023/09/15 05:11:25;;;;;;;89.67;59.63;;;12.40;99.90;;;;;;4979251;28;20628;-81
2023/09/15 05:13:51;;;;;;;90.07;59.83;;;12.50;99.90;;;;;;4978554;28;20248;-80
2023/09/15 05:16:18;;;;;;;88.90;56.07;;;12.40;99.90;;;;;;4979105;28;20164;-80
2023/09/15 05:18:43;;;;;;;91.27;68.13;;;12.40;99.90;;;;;;4979129;28;20168;-80
2023/09/15 05:21:09;;;;;;;86.90;52.53;;;12.40;99.90;;;;;;4978832;28;20424;-80
2023/09/15 05:23:35;;;;;;;91.80;55.50;;;12.40;99.90;;;;;;4978858;28;20188;-81
2023/09/15 05:26:08;;;;;;;82.80;43.40;;;12.40;99.90;;;;;;4977961;28;20403;-80
2023/09/15 05:28:35;;;;;;;81.93;39.37;;;12.30;99.90;;;;;;4978752;28;20411;-80
2023/09/15 05:31:01;;;;;;;85.17;46.23;;;12.50;99.90;;;;;;4960784;28;20431;-80
2023/09/15 05:33:27;;;;;;;86.07;53.90;;;12.50;99.90;;;;;;4960855;28;20180;-80
2023/09/15 05:35:56;;;;;;;88.50;55.87;;;12.50;99.90;;;;;;4960706;28;20175;-80
2023/09/15 05:38:23;;;;;;;87.53;47.13;;;12.50;99.90;;;;;;4977959;28;20768;-79
2023/09/15 05:40:49;;;;;;;86.77;54.90;;;12.50;99.90;;;;;;4977884;28;20469;-79
2023/09/15 05:43:16;;;;;;;91.43;54.57;;;12.60;99.90;;;;;;4977825;28;20462;-79
2023/09/15 05:45:42;;;;;;;90.87;62.47;;;12.70;99.90;;;;;;4977631;28;20420;-79
2023/09/15 05:48:12;;;;;;;89.93;61.27;;;12.80;99.90;;;;;;4977633;28;20880;-79
2023/09/15 05:50:38;;;;;;;92.43;66.40;;;12.70;99.90;;;;;;4977706;28;20412;-79
2023/09/15 05:53:04;;;;;;;91.67;63.30;;;12.70;99.90;;;;;;4977871;28;20498;-79
2023/09/15 05:55:29;;;;;;;94.07;63.33;;;12.70;99.90;;;;;;4977832;28;20505;-79
2023/09/15 05:57:55;;;;;;;90.57;60.47;;;12.80;99.90;;;;;;4977710;28;20172;-79
2023/09/15 06:00:22;;;;;;;89.57;56.77;;;12.60;99.90;;;;;;4977944;28;20331;-79
2023/09/15 06:02:48;;;;;;;83.00;46.07;;;12.60;99.90;;;;;;4976992;28;20200;-79
2023/09/15 06:05:19;;;;;;;89.60;59.87;;;12.60;99.90;;;;;;4977849;28;20415;-79
2023/09/15 06:07:45;;;;;;;87.80;48.37;;;12.60;99.90;;;;;;4978322;28;20379;-79
2023/09/15 06:10:11;;;;;;;87.93;53.73;;;12.70;99.90;;;;;;4977249;28;20536;-79
2023/09/15 06:12:37;;;;;;;87.73;53.43;;;12.70;99.90;;;;;;4977293;28;20832;-79
2023/09/15 06:15:03;;;;;;;85.00;46.67;;;12.60;99.90;;;;;;4977718;28;20163;-79
2023/09/15 06:17:28;;;;;;;86.60;42.53;;;12.60;99.90;;;;;;4977275;28;20213;-79
2023/09/15 06:19:54;;;;;;;84.30;47.23;;;12.60;99.90;;;;;;4977245;28;20407;-79
2023/09/15 06:22:21;;;;;;;100.33;53.00;;;12.70;99.90;;;;;;4977562;28;20199;-79
2023/09/15 06:24:47;;;;;;;84.43;44.73;;;12.80;99.90;;;;;;4976921;28;20164;-79
2023/09/15 06:27:12;;;;;;;86.57;53.83;;;12.90;99.90;;;;;;4976846;28;20407;-79
2023/09/15 06:29:38;;;;;;;87.43;54.70;;;13.00;99.90;;;;;;4976974;28;20164;-79
2023/09/15 06:32:04;;;;;;;88.77;57.47;;;13.00;99.90;;;;;;4976584;28;20191;-79
2023/09/15 06:34:30;;;;;;;94.97;63.10;;;13.10;99.90;;;;;;4976489;28;20190;-79
2023/09/15 06:36:56;;;;;;;90.07;59.00;;;13.20;99.90;;;;;;4975983;28;20972;-79
2023/09/15 06:39:23;;;;;;;95.63;61.00;;;13.10;99.90;;;;;;4976047;28;20203;-79
2023/09/15 06:41:50;;;;;;;95.23;63.80;;;13.00;99.90;;;;;;4976031;28;20454;-79
2023/09/15 06:44:16;;;;;;;90.80;64.63;;;13.20;99.90;;;;;;4975977;28;20410;-79
2023/09/15 06:46:41;;;;;;;88.30;56.57;;;13.20;99.90;;;;;;4958906;28;20916;-79
2023/09/15 06:49:08;;;;;;;94.80;62.97;;;13.20;99.90;;;;;;4976664;28;20160;-79
2023/09/15 06:51:33;;;;;;;93.23;64.20;;;13.20;99.90;;;;;;4976572;28;20267;-79
2023/09/15 06:54:00;;;;;;;88.43;58.33;;;13.20;99.90;;;;;;4959070;28;20442;-79
2023/09/15 06:56:27;;;;;;;88.57;55.37;;;13.30;99.90;;;;;;4959420;28;20633;-78
2023/09/15 06:58:53;;;;;;;89.80;59.50;;;13.40;99.90;;;;;;4976688;28;20410;-79
2023/09/15 07:01:19;;;;;;;91.07;63.03;;;13.30;99.90;;;;;;4976567;28;20419;-79
2023/09/15 07:03:44;;;;;;;88.80;62.30;;;13.40;99.90;;;;;;4976922;28;20411;-79
2023/09/15 07:06:10;;;;;;;89.67;60.47;;;13.30;99.90;;;;;;5599775;23;21596;-78
2023/09/15 07:08:36;;;;;;;92.00;63.33;;;13.40;99.90;;;;;;5062579;23;20639;-79
2023/09/15 07:11:01;;;;;;;91.33;57.37;;;13.50;99.90;;;;;;5002827;28;20203;-79
2023/09/15 07:13:27;;;;;;;91.60;53.23;;;13.60;99.90;;;;;;4988131;28;20171;-79
2023/09/15 07:15:53;;;;;;;91.33;58.17;;;13.80;99.90;;;;;;4969991;28;20175;-79
2023/09/15 07:18:18;;;;;;;90.20;48.30;;;13.80;99.90;;;;;;4985503;28;20163;-79
2023/09/15 07:20:44;;;;;;;86.97;50.20;;;13.90;99.90;;;;;;4968864;28;20180;-79
2023/09/15 07:23:10;;;;;;;88.77;52.67;;;13.90;99.90;;;;;;4988811;28;20196;-79
2023/09/15 07:25:35;;;;;;;85.13;48.87;;;13.90;99.90;;;;;;4971185;28;20642;-79
2023/09/15 07:28:03;;;;;;;84.00;45.13;;;14.00;99.90;;;;;;4988359;28;20163;-79
2023/09/15 07:30:30;;;;;;;83.87;43.67;;;14.00;99.90;;;;;;4986432;28;20168;-79
2023/09/15 07:32:56;;;;;;;81.73;39.40;;;14.00;99.90;;;;;;4988702;28;20441;-79
2023/09/15 07:35:24;;;;;;;87.27;45.00;;;14.20;99.90;;;;;;4970438;28;20443;-79
2023/09/15 07:37:50;;;;;;;85.90;44.37;;;14.30;99.90;;;;;;4987711;28;20415;-79
2023/09/15 07:40:18;;;;;;;87.23;43.90;;;14.30;99.90;;;;;;4987801;28;20400;-79
2023/09/15 07:42:43;;;;;;;82.50;37.37;;;14.30;99.90;;;;;;4985463;28;20278;-79
2023/09/15 07:45:09;;;;;;;83.93;37.13;;;14.40;99.90;;;;;;4986257;28;21002;-79
2023/09/15 07:47:34;;;;;;;82.07;39.00;;;14.50;99.90;;;;;;4988840;28;20152;-79
2023/09/15 07:50:00;;;;;;;125.07;110.23;;;14.60;99.90;;;;;;4988842;28;20232;-79
2023/09/15 07:52:27;;;;;;;86.23;40.63;;;14.60;99.90;;;;;;4984506;28;20198;-79
2023/09/15 07:54:53;;;;;;;81.60;22.27;;;14.70;99.90;;;;;;4986002;28;20171;-80
2023/09/15 07:57:19;;;;;;;79.10;27.20;;;14.70;99.90;;;;;;4985769;28;20423;-79
2023/09/15 07:59:44;;;;;;;80.63;27.67;;;14.80;99.90;;;;;;4984193;28;20178;-79
2023/09/15 08:02:10;;;;;;;77.70;25.37;;;14.80;99.90;;;;;;4985281;28;20195;-79
2023/09/15 08:04:36;;;;;;;85.43;30.63;;;14.90;99.90;;;;;;4969438;28;20541;-80
2023/09/15 08:07:03;;;;;;;76.60;19.03;;;15.00;99.90;;;;;;4989053;28;20168;-79
2023/09/15 08:09:29;;;;;;;77.93;25.53;;;15.10;99.90;;;;;;4984626;28;20152;-79
2023/09/15 08:11:59;;;;;;;77.23;21.37;;;15.10;99.90;;;;;;4987953;28;20514;-79
2023/09/15 08:14:26;;;;;;;87.73;24.70;;;15.20;99.90;;;;;;4970122;28;20435;-79
2023/09/15 08:16:51;;;;;;;79.93;27.20;;;15.20;99.90;;;;;;4988335;28;20407;-79
2023/09/15 08:19:17;;;;;;;77.27;22.67;;;15.30;99.90;;;;;;4972064;28;20410;-79
2023/09/15 08:21:43;;;;;;;82.80;18.57;;;15.40;99.90;;;;;;4987711;28;20226;-79
2023/09/15 08:24:09;;;;;;;76.87;19.47;;;15.40;99.90;;;;;;4989044;28;20407;-79
2023/09/15 08:26:38;;;;;;;78.30;24.40;;;15.50;99.90;;;;;;4987561;28;20208;-79
2023/09/15 08:29:04;;;;;;;75.73;23.10;;;15.60;99.90;;;;;;4988486;28;20172;-79
2023/09/15 08:31:31;;;;;;;84.07;26.33;;;15.60;99.90;;;;;;4984508;28;21003;-79
2023/09/15 08:33:57;;;;;;;78.10;21.20;;;15.60;99.90;;;;;;4983989;28;20407;-79
2023/09/15 08:36:23;;;;;;;76.47;20.20;;;15.60;99.90;;;;;;4983393;28;20422;-79
2023/09/15 08:38:48;;;;;;;84.43;26.17;;;15.70;99.90;;;;;;4982909;28;20200;-79
2023/09/15 08:41:23;;;;;;;78.37;21.80;;;15.70;99.90;;;;;;4986275;28;20459;-79
2023/09/15 08:43:50;;;;;;;81.60;26.73;;;15.70;99.90;;;;;;4986344;28;20584;-79
2023/09/15 08:46:17;;;;;;;78.47;20.67;;;15.80;99.40;;;;;;4987379;28;20391;-79
2023/09/15 08:48:49;;;;;;;79.37;24.33;;;15.90;99.90;;;;;;4987011;28;20419;-79
2023/09/15 08:51:16;;;;;;;79.20;25.50;;;16.10;99.30;;;;;;4987884;28;20421;-79
2023/09/15 08:53:46;;;;;;;76.27;22.03;;;16.10;99.00;;;;;;4987835;28;20395;-79
2023/09/15 08:56:18;;;;;;;83.37;25.30;;;16.20;97.90;;;;;;4969160;28;20458;-79
2023/09/15 08:58:45;;;;;;;78.87;24.47;;;16.30;95.20;;;;;;4969732;28;20479;-79
2023/09/15 09:01:13;;;;;;;84.80;25.57;;;16.30;94.60;;;;;;4988754;28;20426;-79
2023/09/15 09:03:39;;;;;;;81.37;27.27;;;16.40;93.60;;;;;;4988578;28;20482;-79
2023/09/15 09:06:09;;;;;;;76.27;19.47;;;16.60;86.50;;;;;;4989695;28;20410;-80
2023/09/15 09:08:40;;;;;;;80.00;20.60;;;16.60;76.80;;;;;;4988550;28;20179;-79
2023/09/15 09:11:09;;;;;;;75.03;19.50;;;16.70;59.90;;;;;;4971822;28;20463;-79
2023/09/15 09:13:35;;;;;;;76.43;18.10;;;16.80;63.30;;;;;;4971677;28;20415;-79
2023/09/15 09:16:05;;;;;;;76.10;21.87;;;16.90;59.30;;;;;;4988396;28;20773;-79
2023/09/15 09:18:32;;;;;;;77.67;19.67;;;17.00;56.60;;;;;;4988577;28;20627;-79
2023/09/15 09:20:58;;;;;;;76.50;22.77;;;17.10;57.00;;;;;;4987148;28;20912;-79
2023/09/15 09:23:24;;;;;;;77.13;21.47;;;17.20;42.30;;;;;;4987381;28;20510;-79
2023/09/15 09:25:52;;;;;;;74.80;18.80;;;17.30;55.20;;;;;;4979783;28;20916;-78
2023/09/15 09:28:19;;;;;;;78.00;25.23;;;17.40;40.20;;;;;;4978366;28;20168;-77
2023/09/15 09:30:44;;;;;;;78.30;23.90;;;17.50;42.70;;;;;;4978663;28;20912;-77
2023/09/15 09:33:12;;;;;;;75.77;17.87;;;17.60;31.30;;;;;;4978698;28;20410;-77
2023/09/15 09:35:38;;;;;;;76.97;20.20;;;17.70;19.10;;;;;;4978283;28;20191;-77
2023/09/15 09:38:04;;;;;;;76.40;19.23;;;17.80;17.80;;;;;;4978764;28;20414;-78
2023/09/15 09:40:32;;;;;;;76.37;20.87;;;18.00;22.70;;;;;;4959321;28;20813;-77
2023/09/15 09:42:58;;;;;;;75.97;22.30;;;18.00;11.60;;;;;;4959142;28;20459;-77
2023/09/15 09:45:33;;;;;;;78.20;21.87;;;18.20;1.00;;;;;;4977278;28;20466;-78
2023/09/15 09:48:02;;;;;;;73.40;17.60;;;18.30;1.00;;;;;;4961463;28;20399;-78
2023/09/15 09:50:28;;;;;;;75.10;18.33;;;18.40;1.30;;;;;;4979271;28;20404;-77
2023/09/15 09:52:54;;;;;;;73.10;15.80;;;18.60;8.10;;;;;;4980852;28;20506;-76
2023/09/15 09:55:21;;;;;;;70.90;6.10;;;18.80;1.00;;;;;;4981380;28;20407;-80
2023/09/15 09:57:47;;;;;;;74.63;5.67;;;19.00;1.00;;;;;;4986899;28;20773;-80
2023/09/15 10:00:22;;;;;;;70.60;6.00;;;19.20;1.00;;;;;;4988434;28;20419;-80
2023/09/15 10:02:48;;;;;;;71.07;5.97;;;19.30;1.00;;;;;;4970726;28;20203;-80
2023/09/15 10:05:13;;;;;;;70.07;5.63;;;19.50;1.00;;;;;;4987727;28;20443;-80
2023/09/15 10:07:39;;;;;;;70.87;5.70;;;19.60;1.00;;;;;;4972453;28;20511;-80
2023/09/15 10:10:07;;;;;;;70.13;6.77;;;19.70;1.00;;;;;;4982894;28;20222;-78
2023/09/15 10:12:36;;;;;;;71.67;6.47;;;19.90;1.00;;;;;;4976343;28;20653;-77
2023/09/15 10:15:04;;;;;;;71.90;8.60;;;20.20;1.00;;;;;;4977626;28;20407;-77
2023/09/15 10:17:32;;;;;;;69.80;7.70;;;20.30;1.00;;;;;;4978093;28;20422;-78
2023/09/15 10:19:58;;;;;;;71.40;6.23;;;20.30;1.00;;;;;;4976958;28;20506;-77
2023/09/15 10:22:24;;;;;;;71.50;5.57;;;20.50;1.00;;;;;;4977954;28;20537;-78
2023/09/15 10:24:58;;;;;;;71.67;6.00;;;20.50;1.00;;;;;;4977207;28;20176;-77
2023/09/15 10:27:26;;;;;;;73.97;5.13;;;20.60;1.00;;;;;;4976044;28;20459;-77
2023/09/15 10:29:52;;;;;;;74.10;6.37;;;20.70;1.00;;;;;;4978404;28;20462;-77
2023/09/15 10:32:19;;;;;;;69.87;6.63;;;20.90;1.00;;;;;;4978173;28;20439;-78
2023/09/15 10:34:48;;;;;;;70.27;8.23;;;21.20;1.00;;;;;;4975556;28;20172;-77
2023/09/15 10:37:14;;;;;;;70.03;5.67;;;21.10;1.00;;;;;;4977298;28;20576;-78
2023/09/15 10:39:41;;;;;;;73.30;9.07;;;21.20;1.00;;;;;;5214999;23;20517;-80
2023/09/15 10:42:14;;;;;;;71.23;7.37;;;21.20;1.00;;;;;;4984293;28;20466;-80
2023/09/15 10:44:44;;;;;;;74.10;6.73;;;21.40;1.00;;;;;;4978047;28;20478;-80
2023/09/15 10:47:20;;;;;;;70.70;5.87;;;21.80;1.00;;;;;;4977758;28;20407;-80
2023/09/15 10:49:51;;;;;;;71.87;6.20;;;21.60;1.00;;;;;;4960390;28;20414;-80
2023/09/15 10:52:17;;;;;;;70.27;6.07;;;21.70;1.00;;;;;;4978944;28;20437;-80
2023/09/15 10:54:43;;;;;;;71.47;7.90;;;21.80;1.00;;;;;;4960796;28;20416;-80
2023/09/15 10:57:09;;;;;;;74.17;12.03;;;21.80;1.00;;;;;;4977515;28;20411;-80
2023/09/15 10:59:36;;;;;;;70.77;9.50;;;21.70;1.00;;;;;;4959545;28;20172;-79
2023/09/15 11:02:02;;;;;;;80.17;7.47;;;21.80;1.00;;;;;;4975441;28;20918;-78
2023/09/15 11:04:29;;;;;;;71.00;10.60;;;22.10;1.00;;;;;;4976066;28;20395;-78
2023/09/15 11:06:55;;;;;;;74.40;15.77;;;22.40;1.00;;;;;;4975454;28;20438;-78
2023/09/15 11:09:25;;;;;;;72.90;17.83;;;22.50;1.00;;;;;;4958387;28;20426;-78
2023/09/15 11:11:51;;;;;;;78.00;19.17;;;22.70;1.00;;;;;;4976462;28;20796;-78
2023/09/15 11:14:22;;;;;;;75.40;18.30;;;22.80;1.00;;;;;;4975671;28;20407;-78
2023/09/15 11:16:51;;;;;;;73.87;15.57;;;22.80;1.00;;;;;;4958097;28;20415;-78
2023/09/15 11:19:22;;;;;;;72.80;15.67;;;22.70;1.00;;;;;;4975519;28;20415;-78
2023/09/15 11:21:48;;;;;;;74.17;16.80;;;22.60;1.00;;;;;;4975758;28;20492;-78
2023/09/15 11:24:15;;;;;;;71.87;12.70;;;22.80;1.00;;;;;;4975465;28;20490;-78
2023/09/15 11:26:45;;;;;;;69.80;6.97;;;23.10;1.00;;;;;;4975794;28;20967;-78
2023/09/15 11:29:11;;;;;;;70.40;9.30;;;23.30;1.00;;;;;;4975421;28;20466;-79
2023/09/15 11:31:37;;;;;;;69.27;5.90;;;23.30;1.00;;;;;;4975666;28;20427;-78
2023/09/15 11:34:05;;;;;;;69.10;4.37;;;23.40;1.00;;;;;;4975847;28;20403;-78
2023/09/15 11:36:35;;;;;;;69.70;4.33;;;23.40;1.00;;;;;;4958404;28;20757;-78
2023/09/15 11:39:06;;;;;;;72.97;4.40;;;23.70;1.00;;;;;;4976007;28;20808;-78
2023/09/15 11:41:32;;;;;;;78.60;4.70;;;24.00;1.00;;;;;;4975498;28;20469;-78
2023/09/15 11:43:59;;;;;;;69.30;4.00;;;24.20;1.00;;;;;;4975799;28;20805;-78
2023/09/15 11:46:25;;;;;;;68.53;3.73;;;24.40;1.00;;;;;;4975861;28;20422;-78
2023/09/15 11:48:52;;;;;;;70.00;4.13;;;24.20;1.00;;;;;;4975606;28;20963;-78
2023/09/15 11:51:20;;;;;;;69.70;4.37;;;24.50;1.00;;;;;;4975519;28;20424;-78
2023/09/15 11:53:47;;;;;;;71.07;4.30;;;24.60;1.00;;;;;;4975725;28;20935;-78
2023/09/15 11:56:18;;;;;;;70.37;3.93;;;24.50;1.00;;;;;;4975187;28;20765;-78
2023/09/15 11:58:47;;;;;;;69.67;4.57;;;24.00;1.00;;;;;;4975768;28;20462;-78
2023/09/15 12:01:14;;;;;;;69.60;3.83;;;23.80;1.00;;;;;;4975909;28;20505;-78
2023/09/15 12:03:41;;;;;;;72.07;4.20;;;24.00;1.00;;;;;;4975477;28;20890;-78
2023/09/15 12:06:07;;;;;;;69.37;3.87;;;24.20;1.00;;;;;;4975796;28;20908;-78
2023/09/15 12:08:33;;;;;;;69.07;4.37;;;24.10;1.00;;;;;;4975608;28;20399;-78
2023/09/15 12:10:59;;;;;;;68.47;3.70;;;24.00;1.00;;;;;;4957840;28;20206;-78
2023/09/15 12:13:25;;;;;;;69.10;3.13;;;24.40;1.00;;;;;;4975213;28;20411;-78
2023/09/15 12:15:50;;;;;;;69.17;4.50;;;24.20;1.00;;;;;;4975360;28;20408;-78
2023/09/15 12:18:16;;;;;;;71.60;3.97;;;24.20;1.00;;;;;;4975726;28;20529;-78
2023/09/15 12:20:47;;;;;;;69.73;4.03;;;24.40;1.00;;;;;;4975701;28;20769;-79
2023/09/15 12:23:15;;;;;;;69.47;4.90;;;24.40;1.00;;;;;;4976000;28;20176;-78
2023/09/15 12:25:41;;;;;;;69.50;4.60;;;24.10;1.00;;;;;;4975731;28;20462;-78
2023/09/15 12:28:06;;;;;;;69.40;4.40;;;24.20;1.00;;;;;;4975787;28;20435;-78
2023/09/15 12:30:35;;;;;;;69.57;3.93;;;24.20;1.00;;;;;;4975263;28;20168;-78